SBOSBO FLR / LIRQ
Speedbird OnlineSpeedbird Online FLR / LIRQ

Peretola Airport
18:55 19.7°C

Location Florence, Italy
Latitude: 43.810001
Longitude: 11.2051
Local Time 18:55 on 30 May 2024
UTC +2 hours (Europe/Rome)
Currency £1 equals EUR 1.18
METAR LIRQ 301620Z 06003KT 8000 -RA FEW025 SCT040 BKN055 19/18 Q1006
TAF TAF LIRQ 301100Z 3012/3112 24010KT 9999 SCT030 TEMPO 3015/3024 4000 TSRA BECMG 3019/3021 VRB05KT BECMG 3108/3110 24015KT TEMPO 3109/3112 SHRA
Weather As Of 30 May 2024 18:55
Description Light rain
Wind 6 km/h from North-East (60°)
Cloud Cover 75%
Precipitation Rain: none, Snow: none
Sunrise 05:37
Sunset 20:48
NOTAM 16 active NOTAM
Rotations During the last 90 days there were
161 flights from LCY
51 flights from LHR
162 flights to LCY
51 flights to LHR
Lounges Aeroporti VIP Club , Main Building
Web Airport Website | Wikipedia
Codes IATA: FLR
ICAO: LIRQ
Altitude 43 Meter / 142 Feet
Distance 1,189 KM / 739 Miles
from London.
Runways
RunwayLength (m)Surface
051560Asphalt
231560Asphalt
Radio
TypeDescriptionFrequency
APPAPP126.075
ATISATIS129.35
TWRFIRENZE TWR118.3
Live ATC



Support Speedbird Online

© 2017-2024 Speedbird Online